sensor_id;sensor_type;location;lat;lon;timestamp;pressure;altitude;pressure_sealevel;temperature;humidity
21504;BME280;10913;51.992;9.228;2023-05-07T00:01:01;100525.78;;;13.51;100.00
21504;BME280;10913;51.992;9.228;2023-05-07T00:03:27;100529.38;;;13.47;99.57
21504;BME280;10913;51.992;9.228;2023-05-07T00:05:53;100531.31;;;13.37;100.00
21504;BME280;10913;51.992;9.228;2023-05-07T00:08:18;100529.69;;;13.25;100.00
21504;BME280;10913;51.992;9.228;2023-05-07T00:10:44;100528.03;;;13.18;100.00
21504;BME280;10913;51.992;9.228;2023-05-07T00:13:10;100521.88;;;13.16;100.00
21504;BME280;10913;51.992;9.228;2023-05-07T00:15:35;100526.28;;;13.17;100.00
21504;BME280;10913;51.992;9.228;2023-05-07T00:18:00;100525.41;;;13.17;100.00
21504;BME280;10913;51.992;9.228;2023-05-07T00:20:26;100528.00;;;13.20;100.00
21504;BME280;10913;51.992;9.228;2023-05-07T00:22:51;100523.69;;;13.11;100.00
21504;BME280;10913;51.992;9.228;2023-05-07T00:25:17;100526.34;;;13.11;100.00
21504;BME280;10913;51.992;9.228;2023-05-07T00:27:44;100520.09;;;13.14;100.00
21504;BME280;10913;51.992;9.228;2023-05-07T00:30:10;100523.69;;;13.11;100.00
21504;BME280;10913;51.992;9.228;2023-05-07T00:32:36;100522.88;;;13.03;100.00
21504;BME280;10913;51.992;9.228;2023-05-07T00:35:02;100519.44;;;12.98;100.00
21504;BME280;10913;51.992;9.228;2023-05-07T00:37:27;100523.88;;;12.97;100.00
21504;BME280;10913;51.992;9.228;2023-05-07T00:39:52;100521.22;;;12.96;100.00
21504;BME280;10913;51.992;9.228;2023-05-07T00:42:18;100519.44;;;12.98;100.00
21504;BME280;10913;51.992;9.228;2023-05-07T00:44:43;100522.91;;;13.00;100.00
21504;BME280;10913;51.992;9.228;2023-05-07T00:47:09;100525.63;;;12.97;100.00
21504;BME280;10913;51.992;9.228;2023-05-07T00:49:38;100521.25;;;12.93;100.00
21504;BME280;10913;51.992;9.228;2023-05-07T00:52:06;100521.31;;;12.90;100.00
21504;BME280;10913;51.992;9.228;2023-05-07T00:54:33;100526.63;;;12.87;100.00
21504;BME280;10913;51.992;9.228;2023-05-07T00:56:58;100531.97;;;12.84;100.00
21504;BME280;10913;51.992;9.228;2023-05-07T00:59:24;100527.56;;;12.83;100.00
21504;BME280;10913;51.992;9.228;2023-05-07T01:01:49;100534.63;;;12.84;100.00
21504;BME280;10913;51.992;9.228;2023-05-07T01:04:15;100531.97;;;12.84;100.00
21504;BME280;10913;51.992;9.228;2023-05-07T01:06:41;100532.84;;;12.86;100.00
21504;BME280;10913;51.992;9.228;2023-05-07T01:09:07;100537.25;;;12.87;100.00
21504;BME280;10913;51.992;9.228;2023-05-07T01:11:34;100527.50;;;12.89;100.00
21504;BME280;10913;51.992;9.228;2023-05-07T01:13:59;100537.28;;;12.84;100.00
21504;BME280;10913;51.992;9.228;2023-05-07T01:16:25;100532.88;;;12.83;100.00
21504;BME280;10913;51.992;9.228;2023-05-07T01:18:51;100528.53;;;12.77;100.00
21504;BME280;10913;51.992;9.228;2023-05-07T01:21:17;100530.38;;;12.72;100.00
21504;BME280;10913;51.992;9.228;2023-05-07T01:23:44;100526.84;;;12.71;100.00
21504;BME280;10913;51.992;9.228;2023-05-07T01:26:10;100521.56;;;12.68;100.00
21504;BME280;10913;51.992;9.228;2023-05-07T01:28:35;100531.28;;;12.68;100.00
21504;BME280;10913;51.992;9.228;2023-05-07T01:31:02;100532.19;;;12.67;100.00
21504;BME280;10913;51.992;9.228;2023-05-07T01:33:32;100526.88;;;12.65;100.00
21504;BME280;10913;51.992;9.228;2023-05-07T01:35:59;100535.72;;;12.67;100.00
21504;BME280;10913;51.992;9.228;2023-05-07T01:38:27;100533.97;;;12.63;100.00
21504;BME280;10913;51.992;9.228;2023-05-07T01:40:53;100526.94;;;12.61;100.00
21504;BME280;10913;51.992;9.228;2023-05-07T01:43:19;100518.97;;;12.61;100.00
21504;BME280;10913;51.992;9.228;2023-05-07T01:45:45;100523.38;;;12.62;100.00
21504;BME280;10913;51.992;9.228;2023-05-07T01:48:12;100529.66;;;12.58;100.00
21504;BME280;10913;51.992;9.228;2023-05-07T01:50:39;100537.66;;;12.50;100.00
21504;BME280;10913;51.992;9.228;2023-05-07T01:53:04;100542.13;;;12.47;100.00
21504;BME280;10913;51.992;9.228;2023-05-07T01:55:30;100547.41;;;12.47;100.00
21504;BME280;10913;51.992;9.228;2023-05-07T01:57:55;100549.22;;;12.43;100.00
21504;BME280;10913;51.992;9.228;2023-05-07T02:00:21;100544.81;;;12.40;100.00
21504;BME280;10913;51.992;9.228;2023-05-07T02:02:46;100554.53;;;12.43;100.00
21504;BME280;10913;51.992;9.228;2023-05-07T02:05:12;100550.13;;;12.39;100.00
21504;BME280;10913;51.992;9.228;2023-05-07T02:07:37;100552.75;;;12.42;100.00
21504;BME280;10913;51.992;9.228;2023-05-07T02:10:02;100560.66;;;12.48;100.00
21504;BME280;10913;51.992;9.228;2023-05-07T02:12:28;100560.66;;;12.48;100.00
21504;BME280;10913;51.992;9.228;2023-05-07T02:14:53;100555.34;;;12.50;100.00
21504;BME280;10913;51.992;9.228;2023-05-07T02:17:19;100572.16;;;12.47;100.00
21504;BME280;10913;51.992;9.228;2023-05-07T02:19:44;100562.47;;;12.43;100.00
21504;BME280;10913;51.992;9.228;2023-05-07T02:22:10;100564.34;;;12.33;100.00
21504;BME280;10913;51.992;9.228;2023-05-07T02:24:35;100562.63;;;12.28;100.00
21504;BME280;10913;51.992;9.228;2023-05-07T02:27:00;100563.50;;;12.28;100.00
21504;BME280;10913;51.992;9.228;2023-05-07T02:29:27;100552.88;;;12.31;100.00
21504;BME280;10913;51.992;9.228;2023-05-07T02:31:52;100557.31;;;12.31;100.00
21504;BME280;10913;51.992;9.228;2023-05-07T02:34:18;100562.63;;;12.28;100.00
21504;BME280;10913;51.992;9.228;2023-05-07T02:36:44;100553.81;;;12.26;100.00
21504;BME280;10913;51.992;9.228;2023-05-07T02:39:09;100550.31;;;12.22;100.00
21504;BME280;10913;51.992;9.228;2023-05-07T02:41:34;100556.50;;;12.21;100.00
21504;BME280;10913;51.992;9.228;2023-05-07T02:44:00;100562.66;;;12.22;100.00
21504;BME280;10913;51.992;9.228;2023-05-07T02:46:25;100560.00;;;12.23;100.00
21504;BME280;10913;51.992;9.228;2023-05-07T02:48:50;100552.06;;;12.22;100.00
21504;BME280;10913;51.992;9.228;2023-05-07T02:51:19;100559.13;;;12.23;100.00
21504;BME280;10913;51.992;9.228;2023-05-07T02:53:45;100555.59;;;12.25;100.00
21504;BME280;10913;51.992;9.228;2023-05-07T02:56:11;100565.25;;;12.29;100.00
21504;BME280;10913;51.992;9.228;2023-05-07T02:58:37;100562.66;;;12.22;100.00
21504;BME280;10913;51.992;9.228;2023-05-07T03:01:04;100566.25;;;12.18;100.00
21504;BME280;10913;51.992;9.228;2023-05-07T03:03:30;100555.69;;;12.15;100.00
21504;BME280;10913;51.992;9.228;2023-05-07T03:05:55;100550.41;;;12.12;100.00
21504;BME280;10913;51.992;9.228;2023-05-07T03:08:20;100557.50;;;12.10;100.00
21504;BME280;10913;51.992;9.228;2023-05-07T03:10:46;100549.56;;;12.10;100.00
21504;BME280;10913;51.992;9.228;2023-05-07T03:13:12;100543.38;;;12.07;100.00
21504;BME280;10913;51.992;9.228;2023-05-07T03:15:37;100541.63;;;12.06;100.00
21504;BME280;10913;51.992;9.228;2023-05-07T03:18:02;100540.75;;;12.07;100.00
21504;BME280;10913;51.992;9.228;2023-05-07T03:20:28;100552.19;;;12.13;100.00
21504;BME280;10913;51.992;9.228;2023-05-07T03:22:53;100545.13;;;12.12;100.00
21504;BME280;10913;51.992;9.228;2023-05-07T03:25:18;100544.22;;;12.14;100.00
21504;BME280;10913;51.992;9.228;2023-05-07T03:27:44;100539.84;;;12.08;100.00
21504;BME280;10913;51.992;9.228;2023-05-07T03:30:10;100538.97;;;12.06;100.00
21504;BME280;10913;51.992;9.228;2023-05-07T03:32:36;100545.16;;;12.05;100.00
21504;BME280;10913;51.992;9.228;2023-05-07T03:35:01;100548.72;;;12.04;100.00
21504;BME280;10913;51.992;9.228;2023-05-07T03:37:27;100551.34;;;12.04;100.00
21504;BME280;10913;51.992;9.228;2023-05-07T03:39:53;100550.50;;;12.02;100.00
21504;BME280;10913;51.992;9.228;2023-05-07T03:42:18;100549.56;;;12.06;100.00
21504;BME280;10913;51.992;9.228;2023-05-07T03:44:43;100548.66;;;12.09;100.00
21504;BME280;10913;51.992;9.228;2023-05-07T03:47:09;100555.69;;;12.15;100.00
21504;BME280;10913;51.992;9.228;2023-05-07T03:49:35;100555.69;;;12.15;100.00
21504;BME280;10913;51.992;9.228;2023-05-07T03:52:00;100555.69;;;12.15;100.00
21504;BME280;10913;51.992;9.228;2023-05-07T03:54:26;100560.13;;;12.11;100.00
21504;BME280;10913;51.992;9.228;2023-05-07T03:56:51;100551.31;;;12.09;100.00
21504;BME280;10913;51.992;9.228;2023-05-07T03:59:16;100554.88;;;12.06;100.00
21504;BME280;10913;51.992;9.228;2023-05-07T04:01:42;100553.97;;;12.07;100.00
21504;BME280;10913;51.992;9.228;2023-05-07T04:04:07;100558.38;;;12.12;100.00
21504;BME280;10913;51.992;9.228;2023-05-07T04:06:32;100559.22;;;12.15;100.00
21504;BME280;10913;51.992;9.228;2023-05-07T04:08:58;100562.78;;;12.11;100.00
21504;BME280;10913;51.992;9.228;2023-05-07T04:11:24;100569.81;;;12.14;100.00
21504;BME280;10913;51.992;9.228;2023-05-07T04:13:50;100565.44;;;12.11;100.00
21504;BME280;10913;51.992;9.228;2023-05-07T04:16:15;100553.13;;;12.02;100.00
21504;BME280;10913;51.992;9.228;2023-05-07T04:18:41;100557.53;;;12.03;100.00
21504;BME280;10913;51.992;9.228;2023-05-07T04:21:14;100557.56;;;12.02;100.00
21504;BME280;10913;51.992;9.228;2023-05-07T04:23:40;100562.84;;;12.00;100.00
21504;BME280;10913;51.992;9.228;2023-05-07T04:26:05;100575.22;;;12.01;100.00
21504;BME280;10913;51.992;9.228;2023-05-07T04:28:30;100577.88;;;12.00;100.00
21504;BME280;10913;51.992;9.228;2023-05-07T04:30:56;100582.25;;;12.02;100.00
21504;BME280;10913;51.992;9.228;2023-05-07T04:33:21;100576.97;;;11.99;100.00
21504;BME280;10913;51.992;9.228;2023-05-07T04:35:46;100576.09;;;12.02;100.00
21504;BME280;10913;51.992;9.228;2023-05-07T04:38:12;100578.75;;;12.00;100.00
21504;BME280;10913;51.992;9.228;2023-05-07T04:40:37;100580.56;;;11.98;100.00
21504;BME280;10913;51.992;9.228;2023-05-07T04:43:04;100592.88;;;11.99;100.00
21504;BME280;10913;51.992;9.228;2023-05-07T04:45:29;100586.69;;;12.02;100.00
21504;BME280;10913;51.992;9.228;2023-05-07T04:47:55;100594.63;;;12.03;100.00
21504;BME280;10913;51.992;9.228;2023-05-07T04:50:20;100595.47;;;12.07;100.00
21504;BME280;10913;51.992;9.228;2023-05-07T04:52:48;100600.75;;;12.10;100.00
21504;BME280;10913;51.992;9.228;2023-05-07T04:55:13;100606.03;;;12.15;100.00
21504;BME280;10913;51.992;9.228;2023-05-07T04:57:39;100598.97;;;12.14;100.00
21504;BME280;10913;51.992;9.228;2023-05-07T05:00:06;100601.59;;;12.17;100.00
21504;BME280;10913;51.992;9.228;2023-05-07T05:02:33;100598.97;;;12.14;100.00
21504;BME280;10913;51.992;9.228;2023-05-07T05:04:58;100609.56;;;12.11;100.00
21504;BME280;10913;51.992;9.228;2023-05-07T05:07:25;100616.66;;;12.07;100.00
21504;BME280;10913;51.992;9.228;2023-05-07T05:09:50;100622.84;;;12.06;100.00
21504;BME280;10913;51.992;9.228;2023-05-07T05:12:15;100621.06;;;12.11;100.00
21504;BME280;10913;51.992;9.228;2023-05-07T05:14:40;100617.53;;;12.11;100.00
21504;BME280;10913;51.992;9.228;2023-05-07T05:17:06;100622.81;;;12.12;100.00
21504;BME280;10913;51.992;9.228;2023-05-07T05:19:31;100621.03;;;12.13;100.00
21504;BME280;10913;51.992;9.228;2023-05-07T05:21:57;100621.03;;;12.13;100.00
21504;BME280;10913;51.992;9.228;2023-05-07T05:24:22;100617.47;;;12.17;100.00
21504;BME280;10913;51.992;9.228;2023-05-07T05:26:47;100613.06;;;12.19;100.00
21504;BME280;10913;51.992;9.228;2023-05-07T05:29:13;100608.59;;;12.21;100.00
21504;BME280;10913;51.992;9.228;2023-05-07T05:31:38;100618.31;;;12.20;100.00
21504;BME280;10913;51.992;9.228;2023-05-07T05:34:03;100615.72;;;12.16;100.00
21504;BME280;10913;51.992;9.228;2023-05-07T05:36:29;100610.44;;;12.16;100.00
21504;BME280;10913;51.992;9.228;2023-05-07T05:38:55;100613.06;;;12.17;100.00
21504;BME280;10913;51.992;9.228;2023-05-07T05:41:21;100607.75;;;12.19;100.00
21504;BME280;10913;51.992;9.228;2023-05-07T05:43:46;100619.19;;;12.21;100.00
21504;BME280;10913;51.992;9.228;2023-05-07T05:46:12;100615.69;;;12.19;100.00
21504;BME280;10913;51.992;9.228;2023-05-07T05:48:37;100615.66;;;12.22;100.00
21504;BME280;10913;51.992;9.228;2023-05-07T05:51:02;100613.00;;;12.20;100.00
21504;BME280;10913;51.992;9.228;2023-05-07T05:53:28;100619.25;;;12.18;100.00
21504;BME280;10913;51.992;9.228;2023-05-07T05:55:53;100617.44;;;12.20;100.00
21504;BME280;10913;51.992;9.228;2023-05-07T05:58:18;100615.69;;;12.19;100.00
21504;BME280;10913;51.992;9.228;2023-05-07T06:00:44;100622.78;;;12.18;100.00
21504;BME280;10913;51.992;9.228;2023-05-07T06:03:09;100622.72;;;12.20;100.00
21504;BME280;10913;51.992;9.228;2023-05-07T06:05:35;100622.72;;;12.23;100.00
21504;BME280;10913;51.992;9.228;2023-05-07T06:08:01;100619.16;;;12.24;100.00
21504;BME280;10913;51.992;9.228;2023-05-07T06:10:26;100621.78;;;12.27;100.00
21504;BME280;10913;51.992;9.228;2023-05-07T06:12:52;100621.75;;;12.31;100.00
21504;BME280;10913;51.992;9.228;2023-05-07T06:15:17;100627.91;;;12.38;100.00
21504;BME280;10913;51.992;9.228;2023-05-07T06:17:43;100632.31;;;12.37;100.00
21504;BME280;10913;51.992;9.228;2023-05-07T06:20:08;100629.69;;;12.36;100.00
21504;BME280;10913;51.992;9.228;2023-05-07T06:22:33;100639.41;;;12.32;100.00
21504;BME280;10913;51.992;9.228;2023-05-07T06:24:59;100642.94;;;12.33;100.00
21504;BME280;10913;51.992;9.228;2023-05-07T06:27:24;100643.84;;;12.32;100.00
21504;BME280;10913;51.992;9.228;2023-05-07T06:29:50;100639.44;;;12.31;100.00
21504;BME280;10913;51.992;9.228;2023-05-07T06:32:15;100640.31;;;12.33;99.89
21504;BME280;10913;51.992;9.228;2023-05-07T06:34:42;100642.94;;;12.34;99.17
21504;BME280;10913;51.992;9.228;2023-05-07T06:37:07;100644.72;;;12.34;99.01
21504;BME280;10913;51.992;9.228;2023-05-07T06:39:33;100647.34;;;12.37;99.23
21504;BME280;10913;51.992;9.228;2023-05-07T06:42:00;100644.72;;;12.34;99.28
21504;BME280;10913;51.992;9.228;2023-05-07T06:44:25;100651.75;;;12.36;99.18
21504;BME280;10913;51.992;9.228;2023-05-07T06:46:50;100649.13;;;12.35;98.75
21504;BME280;10913;51.992;9.228;2023-05-07T06:49:16;100647.34;;;12.34;99.25
21504;BME280;10913;51.992;9.228;2023-05-07T06:51:41;100654.41;;;12.35;99.41
21504;BME280;10913;51.992;9.228;2023-05-07T06:54:06;100650.88;;;12.36;98.59
21504;BME280;10913;51.992;9.228;2023-05-07T06:56:32;100653.53;;;12.37;98.94
21504;BME280;10913;51.992;9.228;2023-05-07T06:59:00;100651.75;;;12.38;99.56
21504;BME280;10913;51.992;9.228;2023-05-07T07:01:25;100653.53;;;12.36;99.81
21504;BME280;10913;51.992;9.228;2023-05-07T07:03:50;100654.41;;;12.38;99.31
21504;BME280;10913;51.992;9.228;2023-05-07T07:06:16;100657.09;;;12.32;98.95
21504;BME280;10913;51.992;9.228;2023-05-07T07:08:41;100657.97;;;12.31;99.01
21504;BME280;10913;51.992;9.228;2023-05-07T07:11:08;100663.25;;;12.34;98.85
21504;BME280;10913;51.992;9.228;2023-05-07T07:13:33;100665.91;;;12.35;99.11
21504;BME280;10913;51.992;9.228;2023-05-07T07:15:59;100672.91;;;12.39;98.72
21504;BME280;10913;51.992;9.228;2023-05-07T07:18:25;100680.03;;;12.33;98.65
21504;BME280;10913;51.992;9.228;2023-05-07T07:20:50;100673.88;;;12.31;98.97
21504;BME280;10913;51.992;9.228;2023-05-07T07:23:16;100680.06;;;12.31;98.50
21504;BME280;10913;51.992;9.228;2023-05-07T07:25:41;100678.28;;;12.32;99.25
21504;BME280;10913;51.992;9.228;2023-05-07T07:28:06;100677.38;;;12.33;99.26
21504;BME280;10913;51.992;9.228;2023-05-07T07:30:32;100685.25;;;12.40;99.31
21504;BME280;10913;51.992;9.228;2023-05-07T07:32:57;100685.31;;;12.37;98.76
21504;BME280;10913;51.992;9.228;2023-05-07T07:35:28;100686.19;;;12.36;98.84
21504;BME280;10913;51.992;9.228;2023-05-07T07:37:54;100675.63;;;12.32;99.17
21504;BME280;10913;51.992;9.228;2023-05-07T07:40:19;100679.16;;;12.31;99.06
21504;BME280;10913;51.992;9.228;2023-05-07T07:42:46;100680.94;;;12.29;99.50
21504;BME280;10913;51.992;9.228;2023-05-07T07:45:11;100674.78;;;12.28;99.79
21504;BME280;10913;51.992;9.228;2023-05-07T07:47:37;100674.75;;;12.31;99.94
21504;BME280;10913;51.992;9.228;2023-05-07T07:50:03;100682.69;;;12.33;100.00
21504;BME280;10913;51.992;9.228;2023-05-07T07:52:28;100685.34;;;12.31;100.00
21504;BME280;10913;51.992;9.228;2023-05-07T07:54:54;100684.44;;;12.34;99.53
21504;BME280;10913;51.992;9.228;2023-05-07T07:57:19;100680.91;;;12.33;99.78
21504;BME280;10913;51.992;9.228;2023-05-07T07:59:44;100686.22;;;12.32;99.31
21504;BME280;10913;51.992;9.228;2023-05-07T08:02:10;100682.69;;;12.33;98.80
21504;BME280;10913;51.992;9.228;2023-05-07T08:04:35;100683.56;;;12.35;98.98
21504;BME280;10913;51.992;9.228;2023-05-07T08:07:02;100685.31;;;12.36;98.77
21504;BME280;10913;51.992;9.228;2023-05-07T08:09:27;100684.44;;;12.34;99.10
21504;BME280;10913;51.992;9.228;2023-05-07T08:11:53;100690.63;;;12.37;99.23
21504;BME280;10913;51.992;9.228;2023-05-07T08:14:18;100687.97;;;12.36;99.75
21504;BME280;10913;51.992;9.228;2023-05-07T08:16:44;100694.09;;;12.39;99.59
21504;BME280;10913;51.992;9.228;2023-05-07T08:19:09;100688.78;;;12.42;99.48
21504;BME280;10913;51.992;9.228;2023-05-07T08:21:39;100686.97;;;12.51;98.62
21504;BME280;10913;51.992;9.228;2023-05-07T08:24:04;100687.81;;;12.54;99.24
21504;BME280;10913;51.992;9.228;2023-05-07T08:26:30;100697.47;;;12.60;98.68
21504;BME280;10913;51.992;9.228;2023-05-07T08:28:55;100697.44;;;12.61;97.33
21504;BME280;10913;51.992;9.228;2023-05-07T08:31:21;100699.19;;;12.65;97.75
21504;BME280;10913;51.992;9.228;2023-05-07T08:33:46;100699.13;;;12.74;98.67
21504;BME280;10913;51.992;9.228;2023-05-07T08:36:11;100697.34;;;12.78;97.11
21504;BME280;10913;51.992;9.228;2023-05-07T08:38:37;100695.50;;;12.82;96.92
21504;BME280;10913;51.992;9.228;2023-05-07T08:41:02;100704.28;;;12.88;96.30
21504;BME280;10913;51.992;9.228;2023-05-07T08:43:28;100699.84;;;12.90;96.25
21504;BME280;10913;51.992;9.228;2023-05-07T08:45:57;100697.06;;;13.01;96.39
21504;BME280;10913;51.992;9.228;2023-05-07T08:48:27;100712.91;;;13.11;95.03
21504;BME280;10913;51.992;9.228;2023-05-07T08:50:54;100711.13;;;13.10;93.92
21504;BME280;10913;51.992;9.228;2023-05-07T08:53:20;100711.13;;;13.12;95.00
21504;BME280;10913;51.992;9.228;2023-05-07T08:55:46;100709.28;;;13.22;95.71
21504;BME280;10913;51.992;9.228;2023-05-07T08:58:12;100699.44;;;13.31;95.15
21504;BME280;10913;51.992;9.228;2023-05-07T09:00:39;100708.25;;;13.36;94.03
21504;BME280;10913;51.992;9.228;2023-05-07T09:03:05;100712.59;;;13.40;93.29
21504;BME280;10913;51.992;9.228;2023-05-07T09:05:30;100699.38;;;13.37;92.72
21504;BME280;10913;51.992;9.228;2023-05-07T09:07:59;100702.84;;;13.42;93.18
21504;BME280;10913;51.992;9.228;2023-05-07T09:10:25;100701.91;;;13.47;93.29
21504;BME280;10913;51.992;9.228;2023-05-07T09:12:51;100712.53;;;13.47;92.95
21504;BME280;10913;51.992;9.228;2023-05-07T09:15:16;100712.47;;;13.53;92.49
21504;BME280;10913;51.992;9.228;2023-05-07T09:17:43;100709.84;;;13.50;92.10
21504;BME280;10913;51.992;9.228;2023-05-07T09:20:09;100715.06;;;13.59;91.68
21504;BME280;10913;51.992;9.228;2023-05-07T09:22:38;100717.75;;;13.56;91.74
21504;BME280;10913;51.992;9.228;2023-05-07T09:25:04;100700.94;;;13.55;90.83
21504;BME280;10913;51.992;9.228;2023-05-07T09:27:30;100716.72;;;13.66;91.70
21504;BME280;10913;51.992;9.228;2023-05-07T09:29:55;100709.63;;;13.66;90.60
21504;BME280;10913;51.992;9.228;2023-05-07T09:32:21;100713.16;;;13.67;90.83
21504;BME280;10913;51.992;9.228;2023-05-07T09:34:46;100704.28;;;13.71;90.90
21504;BME280;10913;51.992;9.228;2023-05-07T09:37:12;100710.41;;;13.76;91.53
21504;BME280;10913;51.992;9.228;2023-05-07T09:39:46;100706.69;;;13.88;90.18
21504;BME280;10913;51.992;9.228;2023-05-07T09:42:12;100705.63;;;13.99;91.25
21504;BME280;10913;51.992;9.228;2023-05-07T09:44:40;100704.56;;;14.14;90.52
21504;BME280;10913;51.992;9.228;2023-05-07T09:47:06;100710.47;;;14.33;89.99
21504;BME280;10913;51.992;9.228;2023-05-07T09:49:34;100698.00;;;14.38;88.22
21504;BME280;10913;51.992;9.228;2023-05-07T09:52:02;100706.75;;;14.44;88.88
21504;BME280;10913;51.992;9.228;2023-05-07T09:54:28;100699.31;;;14.66;89.25
21504;BME280;10913;51.992;9.228;2023-05-07T09:56:55;100704.50;;;14.75;87.71
21504;BME280;10913;51.992;9.228;2023-05-07T09:59:21;100698.28;;;14.75;86.79
21504;BME280;10913;51.992;9.228;2023-05-07T10:01:48;100700.97;;;14.73;87.05
21504;BME280;10913;51.992;9.228;2023-05-07T10:04:14;100701.66;;;14.85;86.53
21504;BME280;10913;51.992;9.228;2023-05-07T10:06:40;100711.38;;;14.86;85.97
21504;BME280;10913;51.992;9.228;2023-05-07T10:09:07;100705.72;;;15.04;86.88
21504;BME280;10913;51.992;9.228;2023-05-07T10:11:36;100703.63;;;15.21;86.13
21504;BME280;10913;51.992;9.228;2023-05-07T10:14:04;100707.97;;;15.27;84.72
21504;BME280;10913;51.992;9.228;2023-05-07T10:16:34;100705.34;;;15.24;85.26
21504;BME280;10913;51.992;9.228;2023-05-07T10:19:05;100700.84;;;15.27;85.24
21504;BME280;10913;51.992;9.228;2023-05-07T10:21:35;100710.53;;;15.31;85.38
21504;BME280;10913;51.992;9.228;2023-05-07T10:24:07;100704.13;;;15.41;84.18
21504;BME280;10913;51.992;9.228;2023-05-07T10:26:40;100712.03;;;15.44;84.47
21504;BME280;10913;51.992;9.228;2023-05-07T10:29:12;100710.28;;;15.43;84.50
21504;BME280;10913;51.992;9.228;2023-05-07T10:34:33;100708.94;;;15.67;84.22
21504;BME280;10913;51.992;9.228;2023-05-07T10:37:00;100707.16;;;15.68;84.28
21504;BME280;10913;51.992;9.228;2023-05-07T10:39:26;100714.88;;;15.80;84.76
21504;BME280;10913;51.992;9.228;2023-05-07T10:41:52;100715.91;;;15.74;83.83
21504;BME280;10913;51.992;9.228;2023-05-07T10:44:29;100703.72;;;15.63;84.97
21504;BME280;10913;51.992;9.228;2023-05-07T10:47:11;100712.47;;;15.69;83.68
21504;BME280;10913;51.992;9.228;2023-05-07T10:54:36;100705.50;;;15.62;84.24
21504;BME280;10913;51.992;9.228;2023-05-07T10:59:55;100705.03;;;15.83;83.31
21504;BME280;10913;51.992;9.228;2023-05-07T11:02:21;100706.78;;;15.84;84.21
21504;BME280;10913;51.992;9.228;2023-05-07T11:05:21;100705.72;;;15.93;83.02
21504;BME280;10913;51.992;9.228;2023-05-07T11:07:57;100708.97;;;16.07;83.69
21504;BME280;10913;51.992;9.228;2023-05-07T11:39:06;100709.91;;;16.42;81.34
21504;BME280;10913;51.992;9.228;2023-05-07T11:41:36;100716.13;;;16.42;81.35
21504;BME280;10913;51.992;9.228;2023-05-07T11:44:02;100712.28;;;16.56;81.03
21504;BME280;10913;51.992;9.228;2023-05-07T11:46:28;100709.22;;;16.72;80.54
21504;BME280;10913;51.992;9.228;2023-05-07T11:48:54;100707.66;;;16.61;80.32
21504;BME280;10913;51.992;9.228;2023-05-07T11:51:22;100708.28;;;16.73;79.78
21504;BME280;10913;51.992;9.228;2023-05-07T11:53:48;100713.97;;;16.95;79.54
21504;BME280;10913;51.992;9.228;2023-05-07T11:56:16;100720.94;;;16.99;77.51
21504;BME280;10913;51.992;9.228;2023-05-07T11:58:42;100717.31;;;17.02;78.19
21504;BME280;10913;51.992;9.228;2023-05-07T12:01:09;100711.69;;;17.14;77.96
21504;BME280;10913;51.992;9.228;2023-05-07T12:03:36;100703.03;;;17.04;77.35
21504;BME280;10913;51.992;9.228;2023-05-07T12:06:07;100708.25;;;17.09;78.62
21504;BME280;10913;51.992;9.228;2023-05-07T12:08:32;100707.38;;;17.08;79.61
21504;BME280;10913;51.992;9.228;2023-05-07T12:10:57;100718.78;;;17.15;78.59
21504;BME280;10913;51.992;9.228;2023-05-07T12:13:24;100711.91;;;17.05;78.62
21504;BME280;10913;51.992;9.228;2023-05-07T12:15:54;100713.59;;;17.09;78.98
21504;BME280;10913;51.992;9.228;2023-05-07T12:18:20;100717.09;;;17.11;77.34
21504;BME280;10913;51.992;9.228;2023-05-07T12:20:46;100700.03;;;17.16;77.38
21504;BME280;10913;51.992;9.228;2023-05-07T12:23:12;100698.06;;;17.23;77.62
21504;BME280;10913;51.992;9.228;2023-05-07T12:25:39;100701.56;;;17.25;77.27
21504;BME280;10913;51.992;9.228;2023-05-07T12:28:05;100693.22;;;17.37;77.37
21504;BME280;10913;51.992;9.228;2023-05-07T12:30:40;100688.06;;;17.61;78.12
21504;BME280;10913;51.992;9.228;2023-05-07T12:33:05;100698.13;;;17.52;76.70
21504;BME280;10913;51.992;9.228;2023-05-07T12:35:32;100703.56;;;17.49;75.91
21504;BME280;10913;51.992;9.228;2023-05-07T12:38:01;100694.53;;;17.53;76.50
21504;BME280;10913;51.992;9.228;2023-05-07T12:40:43;100699.84;;;17.55;77.12
21504;BME280;10913;51.992;9.228;2023-05-07T12:45:43;100701.84;;;17.47;77.19
21504;BME280;10913;51.992;9.228;2023-05-07T12:48:12;100695.16;;;17.32;77.07
21504;BME280;10913;51.992;9.228;2023-05-07T12:50:38;100702.41;;;17.27;77.46
21504;BME280;10913;51.992;9.228;2023-05-07T12:53:04;100702.41;;;17.27;78.06
21504;BME280;10913;51.992;9.228;2023-05-07T12:55:54;100691.31;;;17.41;77.97
21504;BME280;10913;51.992;9.228;2023-05-07T12:58:24;100704.88;;;17.35;77.37
21504;BME280;10913;51.992;9.228;2023-05-07T13:00:50;100700.13;;;17.44;77.13
21504;BME280;10913;51.992;9.228;2023-05-07T13:03:33;100701.88;;;17.45;78.43
21504;BME280;10913;51.992;9.228;2023-05-07T13:06:01;100715.25;;;17.45;77.24
21504;BME280;10913;51.992;9.228;2023-05-07T13:08:28;100700.13;;;17.44;76.97
21504;BME280;10913;51.992;9.228;2023-05-07T13:10:54;100713.38;;;17.49;77.33
21504;BME280;10913;51.992;9.228;2023-05-07T13:13:20;100700.56;;;17.60;76.88
21504;BME280;10913;51.992;9.228;2023-05-07T13:15:46;100695.69;;;17.76;77.10
21504;BME280;10913;51.992;9.228;2023-05-07T13:18:12;100700.66;;;17.88;75.42
21504;BME280;10913;51.992;9.228;2023-05-07T13:20:37;100701.78;;;17.79;75.44
21504;BME280;10913;51.992;9.228;2023-05-07T13:23:05;100693.72;;;17.81;75.69